Etusivu
METAR-TAF:

METAR-TAF

Lentoasemat :

Sheboygan County Memorial Airport

Sheboygan, Wisconsin, Yhdysvallat

Leveyspiiri: 43-46-35N, Pituuspiiri: 087-50-59W, korkeus merenpinnasta: 228 m

Tämänhetkinen sää

Tämä raportti tehtiin 19 minuuttia sitten, kello 02.15 UTC
Tuuli 5 kn pohjoisesta/koillisesta
Lämpötila 13°C
Kosteus 77%
Ilmanpaine 1014 hPa
Näkyvyys: 16.1 km
Muutamia pilviä 2200 ft:n korkeudessa
Hajonneita pilviä 2700 ft:n korkeudessa
Pilvistä 3900 ft:n korkeudessa

METAR: KSBM 170215Z AUTO 03005KT 10SM FEW022 BKN027 OVC039 13/09 A2995 RMK AO2 T01280094

Aika: 21:34 (02:34 UTC)


TAF: puuttuu

Säähavainnot ja -ennusteet yli 4000 lentoasemalta (METAR- ja TAF-raportit).

Käytössä olevat sääasemat on merkitty karttaan keltaisilla ja punaisilla pisteillä.

Aseta hiiri pisteen päälle nähdäksesi sääaseman nimen.

Klikkaa sitten nähdäksesi säähavainnot ja -ennusteet.

Kartan vaihtaminen: klikkaa mustalla rastilla varustettuja vihreitä pisteitä, niin voit zoomata sisään; viivalla varustettua vihreää pistettä, niin voit zoomata ulos tai vihreitä nuolia, niin pääset viereisille kartoille.


METAR-TAF: